Time;durP1;ratioP1;P1;durP2;ratioP2;P2;SDS_P1;SDS_P2;PMS_P1;PMS_P2;Temp;Humidity;BMP_temperature;BMP_pressure;BME280_temperature;BME280_humidity;BME280_pressure;Samples;Min_cycle;Max_cycle;Signal;HPM_P1;HPM_P2
2023/03/07 00:01:35;;;;;;;;;19.50;19.50;;;;;;;;5055877;28;45519;-47
2023/03/07 00:04:01;;;;;;;;;20.75;20.00;;;;;;;;5064679;27;45482;-50
2023/03/07 00:06:26;;;;;;;;;19.25;18.75;;;;;;;;5068777;28;45494;-46
2023/03/07 00:08:53;;;;;;;;;21.25;19.50;;;;;;;;5074173;27;45485;-48
2023/03/07 00:11:18;;;;;;;;;24.50;21.25;;;;;;;;5073786;27;45469;-52
2023/03/07 00:13:44;;;;;;;;;21.25;20.50;;;;;;;;5055250;28;45484;-49
2023/03/07 00:16:11;;;;;;;;;28.75;20.00;;;;;;;;5073936;27;45505;-51
2023/03/07 00:18:36;;;;;;;;;26.75;23.00;;;;;;;;5041072;27;45389;-51
2023/03/07 00:21:04;;;;;;;;;22.25;21.25;;;;;;;;5068380;27;45466;-51
2023/03/07 00:23:31;;;;;;;;;19.25;18.75;;;;;;;;5046481;28;48258;-51
2023/03/07 00:26:02;;;;;;;;;26.50;23.75;;;;;;;;5069832;27;45833;-53
2023/03/07 00:28:28;;;;;;;;;24.25;20.50;;;;;;;;5063881;27;45441;-48
2023/03/07 00:30:53;;;;;;;;;23.75;23.50;;;;;;;;5073331;27;45449;-50
2023/03/07 00:33:20;;;;;;;;;22.00;22.00;;;;;;;;5073414;28;46284;-49
2023/03/07 00:35:53;;;;;;;;;20.25;20.25;;;;;;;;5073286;27;45467;-48
2023/03/07 00:38:19;;;;;;;;;19.75;18.00;;;;;;;;5073591;27;45575;-48
2023/03/07 00:40:46;;;;;;;;;19.75;19.00;;;;;;;;5073367;27;45465;-50
2023/03/07 00:43:13;;;;;;;;;24.50;20.00;;;;;;;;5072993;27;46212;-50
2023/03/07 00:45:39;;;;;;;;;18.75;18.75;;;;;;;;5073647;27;45596;-49
2023/03/07 00:48:05;;;;;;;;;21.75;20.50;;;;;;;;5058985;27;45529;-50
2023/03/07 00:50:31;;;;;;;;;22.50;18.75;;;;;;;;5055050;28;45775;-48
2023/03/07 00:52:57;;;;;;;;;22.25;20.50;;;;;;;;5071426;28;46430;-49
2023/03/07 00:55:22;;;;;;;;;23.00;19.00;;;;;;;;5061205;28;45491;-49
2023/03/07 00:57:48;;;;;;;;;23.50;19.25;;;;;;;;5073206;27;45552;-47
2023/03/07 01:00:13;;;;;;;;;20.50;18.50;;;;;;;;5072685;27;45935;-51
2023/03/07 01:02:39;;;;;;;;;24.75;18.75;;;;;;;;5073028;27;45557;-49
2023/03/07 01:05:05;;;;;;;;;17.75;14.25;;;;;;;;5073211;27;45591;-49
2023/03/07 01:07:30;;;;;;;;;23.50;22.25;;;;;;;;5063345;28;45553;-47
2023/03/07 01:09:55;;;;;;;;;19.00;18.50;;;;;;;;5068646;27;46022;-47
2023/03/07 01:12:21;;;;;;;;;26.25;23.50;;;;;;;;5072974;27;46036;-50
2023/03/07 01:14:49;;;;;;;;;18.75;18.75;;;;;;;;5073084;28;45528;-50
2023/03/07 01:17:14;;;;;;;;;17.50;13.50;;;;;;;;5073037;27;45501;-49
2023/03/07 01:19:39;;;;;;;;;20.25;19.25;;;;;;;;5072887;28;45636;-50
2023/03/07 01:22:04;;;;;;;;;19.00;19.00;;;;;;;;5041047;28;45475;-51
2023/03/07 01:24:30;;;;;;;;;21.00;17.75;;;;;;;;5076277;27;45502;-49
2023/03/07 01:26:55;;;;;;;;;22.50;18.00;;;;;;;;5058399;27;45505;-47
2023/03/07 01:29:20;;;;;;;;;22.50;21.00;;;;;;;;5076085;27;45459;-46
2023/03/07 01:31:45;;;;;;;;;26.25;22.25;;;;;;;;5066848;27;45586;-46
2023/03/07 01:34:10;;;;;;;;;24.75;19.00;;;;;;;;5069467;27;45683;-48
2023/03/07 01:36:36;;;;;;;;;24.00;20.00;;;;;;;;5063409;28;45437;-50
2023/03/07 01:39:22;;;;;;;;;20.50;20.50;;;;;;;;5076204;27;45582;-50
2023/03/07 01:41:47;;;;;;;;;22.75;20.00;;;;;;;;5075811;27;45565;-50
2023/03/07 01:44:14;;;;;;;;;24.25;23.00;;;;;;;;5075867;27;45431;-49
2023/03/07 01:46:55;;;;;;;;;24.25;18.75;;;;;;;;5076344;27;45602;-49
2023/03/07 01:49:29;;;;;;;;;24.75;20.75;;;;;;;;5075954;27;45660;-51
2023/03/07 01:51:58;;;;;;;;;18.00;18.00;;;;;;;;5076000;27;45465;-48
2023/03/07 01:54:24;;;;;;;;;19.00;19.00;;;;;;;;5075901;28;45643;-48
2023/03/07 01:56:51;;;;;;;;;20.75;20.75;;;;;;;;5075906;27;45426;-49
2023/03/07 01:59:20;;;;;;;;;23.50;20.25;;;;;;;;5075878;27;45410;-49
2023/03/07 02:01:45;;;;;;;;;26.00;24.00;;;;;;;;5075179;28;45481;-49
2023/03/07 02:04:14;;;;;;;;;20.50;20.25;;;;;;;;5075733;27;45537;-46
2023/03/07 02:06:39;;;;;;;;;22.25;18.25;;;;;;;;5075859;27;45503;-49
2023/03/07 02:09:06;;;;;;;;;21.50;20.75;;;;;;;;5075977;27;45673;-47
2023/03/07 02:11:31;;;;;;;;;19.50;16.75;;;;;;;;5075502;27;45441;-47
2023/03/07 02:13:56;;;;;;;;;20.00;18.00;;;;;;;;5075718;27;45400;-51
2023/03/07 02:16:22;;;;;;;;;20.50;19.00;;;;;;;;5075740;27;45629;-50
2023/03/07 02:18:48;;;;;;;;;20.00;20.00;;;;;;;;5075604;27;45692;-49
2023/03/07 02:21:23;;;;;;;;;24.75;23.25;;;;;;;;5075459;28;47478;-49
2023/03/07 02:24:04;;;;;;;;;23.00;22.00;;;;;;;;5075270;27;45541;-47
2023/03/07 02:26:30;;;;;;;;;20.00;20.00;;;;;;;;5047896;28;45588;-48
2023/03/07 02:28:55;;;;;;;;;22.25;22.25;;;;;;;;5053995;28;45553;-48
2023/03/07 02:31:21;;;;;;;;;21.75;20.50;;;;;;;;5054608;28;46323;-51
2023/03/07 02:33:47;;;;;;;;;25.50;25.00;;;;;;;;5055270;28;45529;-50
2023/03/07 02:36:14;;;;;;;;;19.75;16.50;;;;;;;;5055154;28;45517;-50
2023/03/07 02:38:41;;;;;;;;;22.50;21.50;;;;;;;;5055263;28;45554;-48
2023/03/07 02:41:09;;;;;;;;;23.25;22.50;;;;;;;;5054496;28;46736;-46
2023/03/07 02:43:35;;;;;;;;;20.00;18.25;;;;;;;;5055047;28;45521;-45
2023/03/07 02:46:00;;;;;;;;;22.50;18.75;;;;;;;;5054793;28;45555;-49
2023/03/07 02:48:25;;;;;;;;;16.75;16.75;;;;;;;;5055119;28;45511;-45
2023/03/07 02:50:50;;;;;;;;;17.50;17.00;;;;;;;;5054289;28;46015;-47
2023/03/07 02:53:15;;;;;;;;;19.25;18.00;;;;;;;;5054806;28;45552;-50
2023/03/07 02:55:41;;;;;;;;;18.75;17.75;;;;;;;;5054808;28;45757;-47
2023/03/07 02:58:06;;;;;;;;;19.25;18.50;;;;;;;;5054970;28;45542;-47
2023/03/07 03:00:31;;;;;;;;;23.25;19.25;;;;;;;;5054584;28;45481;-49
2023/03/07 03:02:56;;;;;;;;;19.00;17.75;;;;;;;;5054363;28;45466;-48
2023/03/07 03:05:22;;;;;;;;;21.50;19.50;;;;;;;;5054864;28;45628;-48
2023/03/07 03:07:47;;;;;;;;;17.00;17.00;;;;;;;;5054742;28;45582;-49
2023/03/07 03:10:12;;;;;;;;;18.75;18.75;;;;;;;;5054476;28;46019;-47
2023/03/07 03:12:37;;;;;;;;;17.50;17.25;;;;;;;;5054693;28;45416;-49
2023/03/07 03:15:03;;;;;;;;;22.00;22.00;;;;;;;;5054335;28;45456;-48
2023/03/07 03:17:28;;;;;;;;;18.50;17.25;;;;;;;;5054559;28;45424;-52
2023/03/07 03:19:55;;;;;;;;;19.50;18.50;;;;;;;;5054362;28;46250;-48
2023/03/07 03:22:20;;;;;;;;;21.25;17.00;;;;;;;;5054214;28;45583;-47
2023/03/07 03:24:45;;;;;;;;;23.75;19.75;;;;;;;;5054346;28;45519;-48
2023/03/07 03:27:10;;;;;;;;;19.75;15.75;;;;;;;;5054437;28;45608;-50
2023/03/07 03:29:35;;;;;;;;;22.25;21.50;;;;;;;;5054196;28;46322;-49
2023/03/07 03:32:01;;;;;;;;;21.25;19.25;;;;;;;;5054084;28;45471;-52
2023/03/07 03:34:27;;;;;;;;;19.00;18.75;;;;;;;;5054302;28;45421;-50
2023/03/07 03:36:52;;;;;;;;;20.50;19.25;;;;;;;;5054093;28;45572;-48
2023/03/07 03:39:17;;;;;;;;;21.00;19.50;;;;;;;;5053790;28;45899;-48
2023/03/07 03:41:43;;;;;;;;;20.75;19.25;;;;;;;;5054123;28;45409;-47
2023/03/07 03:44:08;;;;;;;;;18.75;18.75;;;;;;;;5054108;28;45411;-49
2023/03/07 03:46:33;;;;;;;;;19.00;19.00;;;;;;;;5053318;28;45486;-49
2023/03/07 03:48:59;;;;;;;;;21.00;18.75;;;;;;;;5053673;28;45408;-49
2023/03/07 03:51:25;;;;;;;;;19.00;17.00;;;;;;;;5053851;28;45434;-51
2023/03/07 03:53:51;;;;;;;;;21.75;17.00;;;;;;;;5053931;28;45516;-48
2023/03/07 03:56:17;;;;;;;;;23.50;20.25;;;;;;;;5053990;28;45644;-49
2023/03/07 03:58:43;;;;;;;;;8.00;7.00;;;;;;;;5052824;28;45572;-49
2023/03/07 04:01:10;;;;;;;;;20.75;19.50;;;;;;;;5053291;28;45684;-51
2023/03/07 04:03:36;;;;;;;;;19.75;19.75;;;;;;;;5053919;28;45458;-51
2023/03/07 04:06:06;;;;;;;;;17.00;16.50;;;;;;;;5053731;28;45502;-50
2023/03/07 04:08:32;;;;;;;;;18.75;18.75;;;;;;;;5053488;28;45498;-50
2023/03/07 04:10:57;;;;;;;;;22.50;20.00;;;;;;;;5053250;28;45572;-47
2023/03/07 04:13:23;;;;;;;;;18.50;17.00;;;;;;;;5053767;28;45516;-50
2023/03/07 04:15:48;;;;;;;;;20.25;19.75;;;;;;;;5053710;28;45655;-51
2023/03/07 04:18:13;;;;;;;;;19.25;19.25;;;;;;;;5053222;28;45570;-48
2023/03/07 04:20:39;;;;;;;;;18.25;17.25;;;;;;;;5053466;28;45541;-49
2023/03/07 04:23:05;;;;;;;;;20.75;20.50;;;;;;;;5053391;28;45534;-50
2023/03/07 04:25:31;;;;;;;;;21.25;18.50;;;;;;;;5035402;28;45376;-47
2023/03/07 04:27:56;;;;;;;;;24.50;22.50;;;;;;;;5035112;28;47095;-51
2023/03/07 04:30:21;;;;;;;;;23.50;19.00;;;;;;;;5053017;28;45506;-50
2023/03/07 04:32:46;;;;;;;;;20.25;18.25;;;;;;;;5035393;28;45361;-52
2023/03/07 04:35:11;;;;;;;;;21.00;21.00;;;;;;;;5053153;28;45419;-50
2023/03/07 04:37:37;;;;;;;;;19.25;19.00;;;;;;;;5035282;28;46208;-47
2023/03/07 04:40:02;;;;;;;;;21.25;20.25;;;;;;;;5053214;28;45591;-48
2023/03/07 04:42:27;;;;;;;;;16.50;13.50;;;;;;;;5034908;28;45507;-51
2023/03/07 04:44:53;;;;;;;;;25.00;22.25;;;;;;;;5053377;28;45392;-49
2023/03/07 04:47:18;;;;;;;;;20.00;19.00;;;;;;;;5052824;28;46318;-48
2023/03/07 04:49:43;;;;;;;;;22.00;19.00;;;;;;;;5053089;28;45482;-48
2023/03/07 04:52:08;;;;;;;;;27.25;22.00;;;;;;;;5053316;28;45412;-49
2023/03/07 04:54:33;;;;;;;;;22.50;18.75;;;;;;;;5053129;28;45588;-52
2023/03/07 04:56:59;;;;;;;;;24.25;20.75;;;;;;;;5033824;28;47997;-50
2023/03/07 04:59:24;;;;;;;;;26.25;21.50;;;;;;;;5052644;28;45557;-49
2023/03/07 05:01:49;;;;;;;;;18.50;18.00;;;;;;;;5052762;28;45626;-46
2023/03/07 05:04:14;;;;;;;;;23.50;19.75;;;;;;;;5052856;28;45638;-49
2023/03/07 05:06:39;;;;;;;;;26.00;22.50;;;;;;;;5052747;28;46268;-46
2023/03/07 05:09:05;;;;;;;;;22.75;17.75;;;;;;;;5052563;28;45475;-51
2023/03/07 05:11:30;;;;;;;;;23.25;21.25;;;;;;;;5052941;28;45585;-50
2023/03/07 05:13:55;;;;;;;;;28.50;28.25;;;;;;;;5052880;28;45594;-49
2023/03/07 05:16:20;;;;;;;;;25.25;20.25;;;;;;;;5052315;28;45550;-50
2023/03/07 05:18:45;;;;;;;;;19.50;17.50;;;;;;;;5052709;28;45576;-48
2023/03/07 05:21:11;;;;;;;;;19.00;17.00;;;;;;;;5052493;28;45646;-50
2023/03/07 05:23:36;;;;;;;;;17.25;17.25;;;;;;;;5052630;28;45398;-51
2023/03/07 05:26:01;;;;;;;;;24.75;20.00;;;;;;;;5052444;28;45671;-50
2023/03/07 05:28:26;;;;;;;;;19.50;19.00;;;;;;;;5052448;28;45482;-48
2023/03/07 05:30:52;;;;;;;;;20.00;19.50;;;;;;;;5052346;28;45553;-47
2023/03/07 05:33:17;;;;;;;;;24.50;21.75;;;;;;;;5052632;28;45517;-50
2023/03/07 05:35:42;;;;;;;;;18.50;17.00;;;;;;;;5051950;28;46496;-48
2023/03/07 05:38:07;;;;;;;;;23.25;21.75;;;;;;;;5052052;28;45470;-47
2023/03/07 05:40:32;;;;;;;;;21.75;18.50;;;;;;;;5052452;28;45450;-47
2023/03/07 05:42:58;;;;;;;;;19.00;17.50;;;;;;;;5052157;28;45483;-47
2023/03/07 05:45:23;;;;;;;;;20.75;18.00;;;;;;;;5051697;28;46132;-47
2023/03/07 05:47:48;;;;;;;;;23.50;18.25;;;;;;;;5052084;28;45553;-53
2023/03/07 05:50:14;;;;;;;;;21.75;19.75;;;;;;;;5052438;28;45479;-52
2023/03/07 05:52:39;;;;;;;;;20.00;16.50;;;;;;;;5052426;28;45423;-46
2023/03/07 05:55:05;;;;;;;;;23.00;18.75;;;;;;;;5052274;28;45509;-47
2023/03/07 05:57:30;;;;;;;;;19.00;18.25;;;;;;;;5049741;28;45598;-50
2023/03/07 05:59:55;;;;;;;;;24.25;18.75;;;;;;;;5052708;28;45536;-50
2023/03/07 06:02:21;;;;;;;;;19.75;19.50;;;;;;;;5050760;28;45566;-47
2023/03/07 06:04:46;;;;;;;;;22.25;20.75;;;;;;;;5052781;28;45873;-50
2023/03/07 06:07:11;;;;;;;;;22.00;18.75;;;;;;;;5052934;28;45413;-47
2023/03/07 06:09:36;;;;;;;;;19.00;16.50;;;;;;;;5055307;28;45589;-47
2023/03/07 06:12:02;;;;;;;;;21.25;17.25;;;;;;;;5053571;28;45451;-46
2023/03/07 06:14:27;;;;;;;;;24.00;18.25;;;;;;;;5055317;28;45885;-50
2023/03/07 06:16:52;;;;;;;;;21.75;18.25;;;;;;;;5055387;28;45486;-47
2023/03/07 06:19:17;;;;;;;;;20.75;18.00;;;;;;;;5047409;28;45601;-55
2023/03/07 06:21:42;;;;;;;;;21.75;19.75;;;;;;;;5054984;28;45574;-48
2023/03/07 06:24:08;;;;;;;;;17.75;17.50;;;;;;;;5053938;28;45470;-56
2023/03/07 06:26:33;;;;;;;;;22.50;19.75;;;;;;;;5052153;28;45526;-56
2023/03/07 06:28:59;;;;;;;;;23.25;18.50;;;;;;;;5053185;28;45587;-54
2023/03/07 06:31:24;;;;;;;;;19.25;18.25;;;;;;;;5055022;28;45466;-55
2023/03/07 06:33:49;;;;;;;;;21.25;18.75;;;;;;;;5055005;28;46541;-54
2023/03/07 06:36:16;;;;;;;;;20.25;17.00;;;;;;;;5054270;28;45477;-55
2023/03/07 06:38:41;;;;;;;;;16.25;16.00;;;;;;;;5055184;28;45419;-54
2023/03/07 06:41:06;;;;;;;;;20.00;20.00;;;;;;;;5055039;28;45630;-54
2023/03/07 06:43:32;;;;;;;;;17.50;16.75;;;;;;;;5054746;28;45498;-52
2023/03/07 06:45:57;;;;;;;;;19.00;16.00;;;;;;;;5048713;28;45411;-57
2023/03/07 06:48:22;;;;;;;;;22.75;19.00;;;;;;;;5055069;28;45503;-57
2023/03/07 06:50:48;;;;;;;;;19.50;18.00;;;;;;;;5054796;28;45416;-56
2023/03/07 06:53:14;;;;;;;;;18.25;16.00;;;;;;;;5054762;28;45961;-59
2023/03/07 06:55:39;;;;;;;;;19.00;17.50;;;;;;;;5054563;28;45553;-58
2023/03/07 06:58:04;;;;;;;;;17.25;17.25;;;;;;;;5054926;28;45416;-58
2023/03/07 07:00:30;;;;;;;;;20.50;19.50;;;;;;;;5046519;28;45530;-57
2023/03/07 07:02:55;;;;;;;;;16.50;14.50;;;;;;;;5053069;28;46127;-57
2023/03/07 07:05:20;;;;;;;;;16.50;16.50;;;;;;;;5055760;28;45489;-58
2023/03/07 07:07:46;;;;;;;;;16.50;16.00;;;;;;;;5044672;28;45497;-58
2023/03/07 07:10:11;;;;;;;;;18.00;14.75;;;;;;;;5054347;28;45391;-58
2023/03/07 07:12:36;;;;;;;;;17.00;17.00;;;;;;;;5053251;28;46134;-61
2023/03/07 07:15:04;;;;;;;;;22.50;21.00;;;;;;;;5053165;28;45681;-62
2023/03/07 07:17:29;;;;;;;;;22.25;18.75;;;;;;;;5048966;28;45517;-62
2023/03/07 07:19:54;;;;;;;;;24.25;17.50;;;;;;;;5053078;28;45681;-60
2023/03/07 07:22:20;;;;;;;;;18.25;17.25;;;;;;;;5054059;28;45455;-62
2023/03/07 07:24:45;;;;;;;;;16.75;15.00;;;;;;;;5051907;28;45503;-62
2023/03/07 07:27:10;;;;;;;;;18.75;16.75;;;;;;;;5046652;28;45645;-60
2023/03/07 07:29:35;;;;;;;;;18.75;16.50;;;;;;;;5053611;28;45486;-61
2023/03/07 07:32:01;;;;;;;;;17.50;16.25;;;;;;;;5051262;28;45488;-59
2023/03/07 07:34:26;;;;;;;;;21.75;16.25;;;;;;;;5043761;28;45571;-60
2023/03/07 07:36:52;;;;;;;;;18.00;16.75;;;;;;;;5052037;28;45519;-60
2023/03/07 07:39:17;;;;;;;;;22.25;20.75;;;;;;;;5054029;28;45515;-59
2023/03/07 07:41:43;;;;;;;;;21.50;19.50;;;;;;;;5053284;28;45707;-59
2023/03/07 07:44:08;;;;;;;;;16.50;16.50;;;;;;;;5052732;28;45682;-61
2023/03/07 07:46:33;;;;;;;;;16.25;16.25;;;;;;;;5052807;28;45555;-59
2023/03/07 07:48:59;;;;;;;;;16.00;10.75;;;;;;;;5053725;28;45557;-59
2023/03/07 07:51:24;;;;;;;;;20.75;18.00;;;;;;;;5053739;28;45537;-59
2023/03/07 07:53:49;;;;;;;;;20.50;19.00;;;;;;;;5051863;28;45573;-61
2023/03/07 07:56:14;;;;;;;;;19.75;16.75;;;;;;;;5053937;28;45565;-60
2023/03/07 07:58:39;;;;;;;;;17.25;14.25;;;;;;;;5052286;28;45527;-61
2023/03/07 08:01:19;;;;;;;;;16.00;13.00;;;;;;;;5033874;28;45468;-59
2023/03/07 08:03:44;;;;;;;;;20.25;17.25;;;;;;;;5048491;28;45492;-57
2023/03/07 08:06:09;;;;;;;;;18.00;17.50;;;;;;;;5049800;28;45468;-63
2023/03/07 08:08:35;;;;;;;;;22.00;18.25;;;;;;;;5054332;28;45657;-63
2023/03/07 08:11:00;;;;;;;;;12.50;12.50;;;;;;;;5053357;28;45578;-58
2023/03/07 08:13:25;;;;;;;;;24.25;19.00;;;;;;;;5051595;28;45677;-59
2023/03/07 08:15:51;;;;;;;;;18.00;17.25;;;;;;;;5052704;28;45554;-55
2023/03/07 08:18:17;;;;;;;;;17.50;17.50;;;;;;;;5049814;28;45472;-55
2023/03/07 08:20:42;;;;;;;;;19.75;16.50;;;;;;;;5053294;28;46241;-57
2023/03/07 08:23:07;;;;;;;;;15.25;13.75;;;;;;;;5046323;28;45415;-56
2023/03/07 08:25:32;;;;;;;;;18.75;16.00;;;;;;;;5053887;28;45639;-57
2023/03/07 08:27:58;;;;;;;;;21.50;18.25;;;;;;;;5053833;28;45732;-57
2023/03/07 08:30:27;;;;;;;;;16.75;16.00;;;;;;;;5053418;28;46129;-56
2023/03/07 08:32:53;;;;;;;;;18.25;18.25;;;;;;;;5053671;28;45422;-57
2023/03/07 08:35:18;;;;;;;;;22.00;21.25;;;;;;;;5039527;28;45445;-56
2023/03/07 08:37:43;;;;;;;;;18.50;18.00;;;;;;;;5053751;28;45368;-56
2023/03/07 08:40:09;;;;;;;;;19.00;15.75;;;;;;;;5053691;28;45505;-56
2023/03/07 08:42:34;;;;;;;;;19.25;17.50;;;;;;;;5053239;28;45572;-58
2023/03/07 08:44:59;;;;;;;;;18.25;17.50;;;;;;;;5053897;28;45474;-58
2023/03/07 08:47:25;;;;;;;;;18.75;17.75;;;;;;;;5053542;28;45614;-58
2023/03/07 08:49:50;;;;;;;;;16.00;15.75;;;;;;;;5053435;28;45477;-57
2023/03/07 08:52:15;;;;;;;;;19.00;17.00;;;;;;;;5053061;28;45497;-55
2023/03/07 08:54:40;;;;;;;;;14.50;14.50;;;;;;;;5053314;28;45534;-57
2023/03/07 08:57:05;;;;;;;;;16.00;16.00;;;;;;;;5053483;28;45544;-57
2023/03/07 08:59:31;;;;;;;;;19.00;15.75;;;;;;;;5052976;28;45511;-57
2023/03/07 09:01:56;;;;;;;;;19.25;17.00;;;;;;;;5053240;28;45481;-57
2023/03/07 09:04:21;;;;;;;;;18.00;17.75;;;;;;;;5047572;28;45493;-57
2023/03/07 09:06:47;;;;;;;;;13.50;12.75;;;;;;;;5034672;28;45541;-57
2023/03/07 09:09:12;;;;;;;;;18.75;17.75;;;;;;;;5052458;28;46201;-59
2023/03/07 09:11:37;;;;;;;;;13.75;13.00;;;;;;;;5065170;27;45490;-56
2023/03/07 09:14:02;;;;;;;;;16.00;13.25;;;;;;;;5053069;28;45644;-58
2023/03/07 09:16:27;;;;;;;;;17.50;16.75;;;;;;;;5051410;28;45721;-57
2023/03/07 09:18:53;;;;;;;;;15.00;15.00;;;;;;;;5050737;28;46011;-59
2023/03/07 09:21:18;;;;;;;;;19.50;16.50;;;;;;;;5049204;28;45537;-59
2023/03/07 09:23:43;;;;;;;;;18.00;18.00;;;;;;;;5035160;28;45550;-62
2023/03/07 09:26:09;;;;;;;;;24.75;19.75;;;;;;;;5052777;28;45592;-61
2023/03/07 09:28:34;;;;;;;;;17.25;17.25;;;;;;;;5053059;28;45546;-62
2023/03/07 09:31:05;;;;;;;;;21.25;18.50;;;;;;;;5051683;28;45545;-58
2023/03/07 09:33:30;;;;;;;;;20.75;18.00;;;;;;;;5044246;28;45510;-50
2023/03/07 09:35:55;;;;;;;;;17.25;16.75;;;;;;;;5050520;28;45477;-61
2023/03/07 09:38:20;;;;;;;;;16.75;13.50;;;;;;;;5043605;28;46365;-60
2023/03/07 09:40:46;;;;;;;;;16.75;14.00;;;;;;;;5052522;28;45613;-61
2023/03/07 09:43:14;;;;;;;;;18.00;18.00;;;;;;;;5053315;28;45505;-59
2023/03/07 09:45:41;;;;;;;;;26.25;19.75;;;;;;;;5056457;28;45616;-60
2023/03/07 09:48:14;;;;;;;;;21.00;17.75;;;;;;;;5050412;28;45584;-61
2023/03/07 09:51:00;;;;;;;;;18.00;18.00;;;;;;;;5054870;28;45384;-60
2023/03/07 09:53:36;;;;;;;;;15.50;14.25;;;;;;;;5053736;28;45496;-62
2023/03/07 09:56:03;;;;;;;;;17.00;17.00;;;;;;;;5055868;28;45634;-63
2023/03/07 09:58:28;;;;;;;;;21.75;19.25;;;;;;;;5053950;28;45470;-61
2023/03/07 10:00:57;;;;;;;;;22.75;19.50;;;;;;;;5055467;28;45439;-60
2023/03/07 10:03:30;;;;;;;;;20.00;18.00;;;;;;;;5053611;28;45526;-61
2023/03/07 10:05:58;;;;;;;;;20.75;17.25;;;;;;;;5055696;28;45499;-63
2023/03/07 10:08:27;;;;;;;;;18.00;18.00;;;;;;;;5054394;28;46221;-63
2023/03/07 10:10:52;;;;;;;;;17.00;16.50;;;;;;;;5055383;28;45532;-64
2023/03/07 10:13:36;;;;;;;;;14.25;14.25;;;;;;;;5056196;28;45645;-62
2023/03/07 10:16:09;;;;;;;;;22.25;18.25;;;;;;;;5056040;28;45466;-66
2023/03/07 10:18:43;;;;;;;;;21.25;17.00;;;;;;;;5055553;28;45447;-62
2023/03/07 10:21:20;;;;;;;;;28.50;22.50;;;;;;;;5055030;28;45556;-62
2023/03/07 10:23:58;;;;;;;;;17.25;17.00;;;;;;;;5055678;28;45483;-62
2023/03/07 10:26:31;;;;;;;;;17.25;17.25;;;;;;;;5054579;28;45457;-67
2023/03/07 10:28:58;;;;;;;;;16.50;13.50;;;;;;;;5051353;28;46426;-61
2023/03/07 10:31:25;;;;;;;;;20.00;17.25;;;;;;;;5052182;28;45533;-57
2023/03/07 10:33:52;;;;;;;;;28.25;15.25;;;;;;;;5052904;28;45491;-60
2023/03/07 10:36:17;;;;;;;;;19.75;18.50;;;;;;;;5055366;28;45538;-61
2023/03/07 10:38:48;;;;;;;;;20.50;17.00;;;;;;;;5055196;28;46135;-60
2023/03/07 10:41:16;;;;;;;;;18.50;14.50;;;;;;;;5055262;28;45578;-60
2023/03/07 10:43:42;;;;;;;;;21.00;16.50;;;;;;;;5036854;28;45543;-60
2023/03/07 10:46:27;;;;;;;;;17.75;15.25;;;;;;;;5053317;28;45503;-60
2023/03/07 10:48:54;;;;;;;;;14.75;14.00;;;;;;;;5052736;28;45704;-60
2023/03/07 10:51:19;;;;;;;;;21.00;15.75;;;;;;;;5053964;28;45510;-60
2023/03/07 10:53:45;;;;;;;;;17.25;14.50;;;;;;;;5055143;28;45469;-56
2023/03/07 10:56:14;;;;;;;;;18.50;18.50;;;;;;;;5052813;28;45649;-58
2023/03/07 10:58:57;;;;;;;;;19.50;18.50;;;;;;;;5054612;28;46387;-62
2023/03/07 11:01:24;;;;;;;;;19.50;19.50;;;;;;;;5049301;28;45511;-59
2023/03/07 11:03:51;;;;;;;;;18.75;13.50;;;;;;;;5053831;28;45527;-60
2023/03/07 11:06:39;;;;;;;;;12.00;12.00;;;;;;;;5057177;28;45528;-60
2023/03/07 11:09:11;;;;;;;;;13.00;12.00;;;;;;;;5028561;28;46733;-59
2023/03/07 11:11:37;;;;;;;;;16.75;16.75;;;;;;;;5034824;28;45406;-59
2023/03/07 11:14:06;;;;;;;;;14.25;14.25;;;;;;;;5054731;28;45514;-62
2023/03/07 11:16:31;;;;;;;;;13.50;13.00;;;;;;;;5043152;28;45492;-63
2023/03/07 11:18:57;;;;;;;;;16.25;14.75;;;;;;;;5054598;28;46087;-60
2023/03/07 11:21:30;;;;;;;;;19.50;16.50;;;;;;;;5054322;28;45474;-59
2023/03/07 11:24:00;;;;;;;;;18.00;13.75;;;;;;;;5050235;28;45530;-61
2023/03/07 11:26:29;;;;;;;;;13.00;12.75;;;;;;;;5054296;28;45451;-64
2023/03/07 11:29:08;;;;;;;;;12.50;12.50;;;;;;;;5051750;28;45979;-54
2023/03/07 11:31:39;;;;;;;;;15.50;14.25;;;;;;;;5053343;28;45638;-58
2023/03/07 11:34:14;;;;;;;;;14.00;12.75;;;;;;;;5045576;28;45589;-58
2023/03/07 11:36:42;;;;;;;;;11.50;11.50;;;;;;;;5053254;28;45468;-57
2023/03/07 11:39:26;;;;;;;;;11.25;9.25;;;;;;;;5053928;28;45507;-56
2023/03/07 11:41:56;;;;;;;;;9.75;9.75;;;;;;;;5053008;28;45526;-57
2023/03/07 11:44:27;;;;;;;;;12.50;12.25;;;;;;;;5032094;28;45530;-57
2023/03/07 11:47:01;;;;;;;;;17.50;16.00;;;;;;;;5047166;28;45580;-60
2023/03/07 11:49:29;;;;;;;;;12.50;12.00;;;;;;;;5040208;28;45604;-62
2023/03/07 11:51:57;;;;;;;;;12.75;10.50;;;;;;;;5053664;28;45530;-60
2023/03/07 11:54:34;;;;;;;;;14.50;12.50;;;;;;;;5053027;28;45488;-61
2023/03/07 11:57:04;;;;;;;;;9.50;8.75;;;;;;;;5046554;28;45686;-60
2023/03/07 11:59:36;;;;;;;;;9.75;9.75;;;;;;;;5053725;28;46307;-59
2023/03/07 12:02:03;;;;;;;;;6.25;6.25;;;;;;;;5052628;28;45532;-57
2023/03/07 12:04:45;;;;;;;;;7.25;7.25;;;;;;;;5053400;28;45524;-59
2023/03/07 12:07:22;;;;;;;;;12.25;9.50;;;;;;;;5052630;28;45605;-59
2023/03/07 12:09:48;;;;;;;;;8.25;8.25;;;;;;;;5052281;28;45516;-60
2023/03/07 12:12:13;;;;;;;;;9.25;9.00;;;;;;;;5034436;28;45510;-60
2023/03/07 12:14:45;;;;;;;;;12.00;10.50;;;;;;;;5052604;28;45541;-60
2023/03/07 12:17:30;;;;;;;;;9.00;9.00;;;;;;;;5053212;28;45513;-63
2023/03/07 12:20:04;;;;;;;;;9.00;9.00;;;;;;;;5053870;28;45544;-61
2023/03/07 12:22:38;;;;;;;;;11.75;9.50;;;;;;;;5052664;28;45554;-60
2023/03/07 12:25:03;;;;;;;;;12.75;11.00;;;;;;;;5053986;28;45534;-60
2023/03/07 12:27:41;;;;;;;;;8.75;8.75;;;;;;;;5052835;28;45530;-60
2023/03/07 12:30:19;;;;;;;;;13.25;12.25;;;;;;;;5052699;28;45558;-62
2023/03/07 12:32:44;;;;;;;;;10.25;7.75;;;;;;;;5047291;28;45566;-61
2023/03/07 12:35:25;;;;;;;;;11.50;11.50;;;;;;;;5053214;28;45525;-61
2023/03/07 12:37:50;;;;;;;;;9.00;9.00;;;;;;;;5051523;28;45673;-62
2023/03/07 12:40:20;;;;;;;;;11.50;8.25;;;;;;;;5053294;28;45486;-59
2023/03/07 12:42:51;;;;;;;;;6.25;6.25;;;;;;;;5031620;28;45518;-54
2023/03/07 12:45:19;;;;;;;;;9.33;8.33;;;;;;;;5034360;28;45468;-56
2023/03/07 12:47:53;;;;;;;;;11.75;9.25;;;;;;;;5045582;28;45515;-59
2023/03/07 12:50:22;;;;;;;;;9.50;9.50;;;;;;;;5046599;28;46290;-60
2023/03/07 12:52:47;;;;;;;;;12.50;11.50;;;;;;;;5053205;28;45515;-57
2023/03/07 12:55:17;;;;;;;;;13.00;10.25;;;;;;;;5025479;28;45598;-52
2023/03/07 12:57:49;;;;;;;;;8.00;8.00;;;;;;;;5051360;28;45534;-52
2023/03/07 13:00:18;;;;;;;;;10.50;10.50;;;;;;;;5051269;28;45596;-51
2023/03/07 13:02:48;;;;;;;;;13.00;11.25;;;;;;;;5051982;28;45533;-58
2023/03/07 13:05:23;;;;;;;;;15.00;10.00;;;;;;;;5051312;28;45482;-60
2023/03/07 13:07:49;;;;;;;;;10.25;9.75;;;;;;;;5034507;28;45592;-60
2023/03/07 13:10:19;;;;;;;;;9.50;8.50;;;;;;;;5046295;28;45578;-59
2023/03/07 13:12:44;;;;;;;;;7.00;7.00;;;;;;;;5030164;28;45471;-60
2023/03/07 13:15:22;;;;;;;;;9.00;9.00;;;;;;;;5047468;28;45550;-60
2023/03/07 13:17:47;;;;;;;;;8.00;8.00;;;;;;;;5052426;28;45543;-60
2023/03/07 13:20:18;;;;;;;;;13.67;8.67;;;;;;;;5053650;28;46232;-59
2023/03/07 13:22:43;;;;;;;;;7.67;6.00;;;;;;;;5050504;28;45741;-59
2023/03/07 13:25:23;;;;;;;;;8.00;6.33;;;;;;;;5056439;28;45447;-61
2023/03/07 13:27:50;;;;;;;;;9.25;9.25;;;;;;;;5055193;28;45547;-59
2023/03/07 13:30:28;;;;;;;;;10.25;8.00;;;;;;;;5055728;28;46409;-58
2023/03/07 13:32:54;;;;;;;;;7.67;7.67;;;;;;;;5053021;28;45589;-58
2023/03/07 13:35:31;;;;;;;;;13.00;9.00;;;;;;;;5056460;28;46149;-53
2023/03/07 13:38:16;;;;;;;;;9.00;9.00;;;;;;;;5049995;28;45773;-61
2023/03/07 13:40:42;;;;;;;;;10.00;8.00;;;;;;;;5022574;28;45544;-61
2023/03/07 13:43:22;;;;;;;;;9.25;9.25;;;;;;;;5038708;28;45543;-60
2023/03/07 13:45:51;;;;;;;;;8.50;8.00;;;;;;;;5055299;28;45422;-57
2023/03/07 13:48:26;;;;;;;;;10.00;8.00;;;;;;;;5056301;28;45550;-59
2023/03/07 13:50:51;;;;;;;;;10.00;9.00;;;;;;;;5055562;28;45599;-64
2023/03/07 13:53:19;;;;;;;;;12.00;10.00;;;;;;;;5054319;28;45514;-60
2023/03/07 13:55:51;;;;;;;;;14.00;12.00;;;;;;;;5055258;28;45488;-59
2023/03/07 13:58:20;;;;;;;;;9.00;9.00;;;;;;;;5056285;28;45478;-60
2023/03/07 14:00:53;;;;;;;;;11.33;10.00;;;;;;;;5054653;28;45449;-59
2023/03/07 14:03:34;;;;;;;;;9.00;8.00;;;;;;;;5045382;28;45686;-65
2023/03/07 14:06:03;;;;;;;;;11.75;10.00;;;;;;;;5061551;27;45582;-60
2023/03/07 14:08:31;;;;;;;;;8.75;8.00;;;;;;;;5048350;28;45703;-61
2023/03/07 14:10:57;;;;;;;;;13.25;9.50;;;;;;;;5046684;28;45998;-62
2023/03/07 14:13:33;;;;;;;;;6.25;4.00;;;;;;;;5059589;28;45644;-61
2023/03/07 14:16:17;;;;;;;;;12.67;10.00;;;;;;;;5061124;27;46073;-60
2023/03/07 14:18:42;;;;;;;;;8.50;8.50;;;;;;;;5055953;28;45663;-60
2023/03/07 14:21:19;;;;;;;;;13.00;9.00;;;;;;;;5054143;28;46004;-57
2023/03/07 14:23:49;;;;;;;;;7.33;6.67;;;;;;;;5032150;28;45529;-61